createdAt,value
2022-12-04T00:00:58.081Z,18
2022-12-04T00:02:06.437Z,18
2022-12-04T00:03:15.073Z,16.5
2022-12-04T00:04:23.390Z,16.5
2022-12-04T00:05:31.740Z,16.5
2022-12-04T00:06:40.270Z,17.200001
2022-12-04T00:07:48.699Z,17.200001
2022-12-04T00:08:56.972Z,17.200001
2022-12-04T00:10:05.525Z,16.4
2022-12-04T00:11:13.876Z,16.4
2022-12-04T00:12:22.229Z,16.4
2022-12-04T00:13:30.766Z,15.3
2022-12-04T00:15:00.689Z,15.3
2022-12-04T00:15:47.450Z,15.3
2022-12-04T00:16:56.077Z,15.7
2022-12-04T00:18:04.362Z,15.7
2022-12-04T00:19:12.710Z,15.7
2022-12-04T00:20:21.261Z,15.2
2022-12-04T00:21:29.641Z,15.2
2022-12-04T00:22:37.983Z,15.2
2022-12-04T00:23:46.561Z,17.200001
2022-12-04T00:24:54.898Z,17.200001
2022-12-04T00:26:03.263Z,17.200001
2022-12-04T00:27:11.845Z,15.7
2022-12-04T00:28:20.185Z,15.7
2022-12-04T00:29:28.526Z,15.7
2022-12-04T00:30:37.105Z,18.1
2022-12-04T00:31:45.520Z,18.1
2022-12-04T00:32:53.814Z,18.1
2022-12-04T00:34:02.483Z,16.799999
2022-12-04T00:35:10.727Z,16.799999
2022-12-04T00:36:19.071Z,16.799999
2022-12-04T00:37:27.671Z,19.9
2022-12-04T00:38:35.978Z,19.9
2022-12-04T00:39:44.327Z,19.9
2022-12-04T00:40:52.898Z,18.1
2022-12-04T00:42:01.239Z,18.1
2022-12-04T00:43:09.588Z,18.1
2022-12-04T00:44:18.158Z,17.6
2022-12-04T00:45:26.603Z,17.6
2022-12-04T00:46:34.857Z,17.6
2022-12-04T00:47:43.408Z,15.8
2022-12-04T00:48:51.757Z,15.8
2022-12-04T00:50:00.117Z,15.8
2022-12-04T00:51:08.725Z,18.9
2022-12-04T00:52:17.063Z,18.9
2022-12-04T00:53:25.495Z,18.9
2022-12-04T00:54:34.007Z,17.299999
2022-12-04T00:55:42.385Z,17.299999
2022-12-04T00:56:50.720Z,17.299999
2022-12-04T00:58:00.072Z,16.9
2022-12-04T00:59:07.631Z,16.9
2022-12-04T01:00:15.985Z,16.9
2022-12-04T01:01:24.635Z,16.200001
2022-12-04T01:02:32.955Z,16.200001
2022-12-04T01:03:41.248Z,16.200001
2022-12-04T01:04:49.803Z,15.7
2022-12-04T01:05:58.153Z,15.7
2022-12-04T01:07:06.511Z,15.7
2022-12-04T01:08:15.134Z,16.700001
2022-12-04T01:09:23.426Z,16.700001
2022-12-04T01:10:31.787Z,16.700001
2022-12-04T01:11:40.358Z,19.6
2022-12-04T01:12:48.803Z,19.6
2022-12-04T01:13:57.044Z,19.6
2022-12-04T01:15:05.590Z,23.1
2022-12-04T01:16:13.993Z,23.1
2022-12-04T01:17:22.341Z,23.1
2022-12-04T01:18:30.893Z,19.5
2022-12-04T01:19:39.240Z,19.5
2022-12-04T01:20:47.592Z,19.5
2022-12-04T01:21:56.209Z,24.4
2022-12-04T01:23:04.583Z,24.4
2022-12-04T01:24:12.920Z,24.4
2022-12-04T01:25:21.471Z,28.9
2022-12-04T01:26:29.870Z,28.9
2022-12-04T01:27:38.221Z,28.9
2022-12-04T01:28:46.799Z,29
2022-12-04T01:29:55.356Z,29
2022-12-04T01:31:03.495Z,29
2022-12-04T01:32:12.160Z,28.700001
2022-12-04T01:33:20.383Z,28.700001
2022-12-04T01:34:28.714Z,28.700001
2022-12-04T01:35:37.279Z,30.9
2022-12-04T01:36:45.622Z,30.9
2022-12-04T01:37:53.972Z,30.9
2022-12-04T01:39:02.539Z,32.299999
2022-12-04T01:40:10.901Z,32.299999
2022-12-04T01:41:19.275Z,32.299999
2022-12-04T01:42:27.846Z,34.200001
2022-12-04T01:43:36.199Z,34.200001
2022-12-04T01:44:44.569Z,34.200001
2022-12-04T01:45:53.167Z,33
2022-12-04T01:47:01.451Z,33
2022-12-04T01:48:09.862Z,33
2022-12-04T01:49:18.416Z,32.700001
2022-12-04T01:50:26.776Z,32.700001
2022-12-04T01:51:35.118Z,32.700001
2022-12-04T01:52:43.669Z,36.700001
2022-12-04T01:53:52.063Z,36.700001
2022-12-04T01:55:00.416Z,36.700001
2022-12-04T01:56:08.982Z,36.400002
2022-12-04T01:57:17.325Z,36.400002
2022-12-04T01:58:25.664Z,36.400002
2022-12-04T01:59:34.240Z,35.5
2022-12-04T02:00:42.681Z,35.5
2022-12-04T02:01:51.021Z,35.5
2022-12-04T02:02:59.615Z,35.299999
2022-12-04T02:04:07.830Z,35.299999
2022-12-04T02:05:16.179Z,35.299999
2022-12-04T02:06:24.738Z,37.799999
2022-12-04T02:07:33.108Z,37.799999
2022-12-04T02:08:41.426Z,37.799999
2022-12-04T02:09:49.979Z,40.299999
2022-12-04T02:10:58.340Z,40.299999
2022-12-04T02:12:06.700Z,40.299999
2022-12-04T02:13:15.245Z,38.799999
2022-12-04T02:14:23.582Z,38.799999
2022-12-04T02:15:31.939Z,38.799999
2022-12-04T02:16:40.570Z,38.700001
2022-12-04T02:17:48.830Z,38.700001
2022-12-04T02:18:57.173Z,38.700001
2022-12-04T02:20:05.724Z,35.599998
2022-12-04T02:21:14.078Z,35.599998
2022-12-04T02:22:22.429Z,35.599998
2022-12-04T02:23:30.976Z,33.799999
2022-12-04T02:24:39.324Z,33.799999
2022-12-04T02:25:47.676Z,33.799999
2022-12-04T02:26:56.229Z,33.400002
2022-12-04T02:28:04.580Z,33.400002
2022-12-04T02:29:12.930Z,33.400002
2022-12-04T02:30:21.497Z,36.5
2022-12-04T02:31:29.824Z,36.5
2022-12-04T02:32:38.197Z,36.5
2022-12-04T02:33:46.726Z,35.099998
2022-12-04T02:34:55.065Z,35.099998
2022-12-04T02:36:03.422Z,35.099998
2022-12-04T02:37:11.965Z,34.799999
2022-12-04T02:38:20.297Z,34.799999
2022-12-04T02:39:28.639Z,34.799999
2022-12-04T02:40:37.220Z,35.299999
2022-12-04T02:41:45.553Z,35.299999
2022-12-04T02:42:53.895Z,35.299999
2022-12-04T02:44:02.439Z,39.599998
2022-12-04T02:45:10.797Z,39.599998
2022-12-04T02:46:19.215Z,39.599998
2022-12-04T02:47:27.706Z,36.099998
2022-12-04T02:48:36.090Z,36.099998
2022-12-04T02:49:44.390Z,36.099998
2022-12-04T02:50:52.950Z,35.599998
2022-12-04T02:52:01.289Z,35.599998
2022-12-04T02:53:09.634Z,35.599998
2022-12-04T02:54:18.176Z,34.5
2022-12-04T02:55:26.522Z,34.5
2022-12-04T02:56:34.884Z,34.5
2022-12-04T02:57:43.438Z,33.200001
2022-12-04T02:58:51.790Z,33.200001
2022-12-04T03:00:00.154Z,33.200001
2022-12-04T03:01:08.757Z,36.200001
2022-12-04T03:02:17.129Z,36.200001
2022-12-04T03:03:25.415Z,36.200001
2022-12-04T03:04:34.025Z,33.400002
2022-12-04T03:05:42.353Z,33.400002
2022-12-04T03:06:50.704Z,33.400002
2022-12-04T03:07:59.342Z,34.599998
2022-12-04T03:09:07.610Z,34.599998
2022-12-04T03:10:15.960Z,34.599998
2022-12-04T03:11:24.525Z,33.700001
2022-12-04T03:12:32.865Z,33.700001
2022-12-04T03:13:41.200Z,33.700001
2022-12-04T03:14:49.755Z,33.900002
2022-12-04T03:15:58.118Z,33.900002
2022-12-04T03:17:06.529Z,33.900002
2022-12-04T03:18:15.016Z,36.799999
2022-12-04T03:19:23.365Z,36.799999
2022-12-04T03:20:31.740Z,36.799999
2022-12-04T03:21:40.260Z,35.599998
2022-12-04T03:22:48.605Z,35.599998
2022-12-04T03:23:56.933Z,35.599998
2022-12-04T03:25:05.499Z,32.599998
2022-12-04T03:26:13.881Z,32.599998
2022-12-04T03:27:22.235Z,32.599998
2022-12-04T03:28:30.808Z,32.5
2022-12-04T03:29:39.155Z,32.5
2022-12-04T03:30:47.570Z,32.5
2022-12-04T03:31:56.078Z,34.099998
2022-12-04T03:33:04.422Z,34.099998
2022-12-04T03:34:12.768Z,34.099998
2022-12-04T03:35:21.329Z,30
2022-12-04T03:36:29.699Z,30
2022-12-04T03:37:38.022Z,30
2022-12-04T03:38:46.563Z,29.700001
2022-12-04T03:39:55.199Z,29.700001
2022-12-04T03:41:03.255Z,29.700001
2022-12-04T03:42:11.807Z,30.6
2022-12-04T03:43:20.145Z,30.6
2022-12-04T03:44:28.488Z,30.6
2022-12-04T03:45:37.187Z,30.700001
2022-12-04T03:46:45.383Z,30.700001
2022-12-04T03:47:53.721Z,30.700001
2022-12-04T03:49:02.317Z,32.900002
2022-12-04T03:50:10.686Z,32.900002
2022-12-04T03:51:19.042Z,32.900002
2022-12-04T03:52:27.614Z,34.900002
2022-12-04T03:53:35.930Z,34.900002
2022-12-04T03:54:44.301Z,34.900002
2022-12-04T03:55:52.869Z,31.200001
2022-12-04T03:57:01.211Z,31.200001
2022-12-04T03:58:09.559Z,31.200001
2022-12-04T03:59:18.114Z,35.400002
2022-12-04T04:00:26.489Z,35.400002
2022-12-04T04:01:34.916Z,35.400002
2022-12-04T04:02:43.458Z,34.900002
2022-12-04T04:03:51.728Z,34.900002
2022-12-04T04:05:00.074Z,34.900002
2022-12-04T04:06:08.632Z,37.200001
2022-12-04T04:07:16.968Z,37.200001
2022-12-04T04:08:25.465Z,37.200001
2022-12-04T04:09:33.853Z,36.200001
2022-12-04T04:10:42.200Z,36.200001
2022-12-04T04:11:50.542Z,36.200001
2022-12-04T04:12:59.091Z,36
2022-12-04T04:14:07.436Z,36
2022-12-04T04:15:15.784Z,36
2022-12-04T04:16:24.433Z,34.5
2022-12-04T04:17:38.118Z,34.5
2022-12-04T04:18:41.058Z,34.5
2022-12-04T04:19:49.607Z,32.599998
2022-12-04T04:20:57.940Z,32.599998
2022-12-04T04:22:06.273Z,32.599998
2022-12-04T04:23:14.836Z,38.599998
2022-12-04T04:24:23.210Z,38.599998
2022-12-04T04:25:31.535Z,38.599998
2022-12-04T04:26:40.098Z,41.099998
2022-12-04T04:27:48.444Z,41.099998
2022-12-04T04:28:56.790Z,41.099998
2022-12-04T04:30:05.338Z,39.599998
2022-12-04T04:31:13.783Z,39.599998
2022-12-04T04:32:22.034Z,39.599998
2022-12-04T04:33:30.585Z,34.099998
2022-12-04T04:34:38.919Z,34.099998
2022-12-04T04:35:47.261Z,34.099998
2022-12-04T04:36:55.824Z,37.799999
2022-12-04T04:38:04.135Z,37.799999
2022-12-04T04:39:12.477Z,37.799999
2022-12-04T04:40:21.061Z,35.900002
2022-12-04T04:41:29.390Z,35.900002
2022-12-04T04:42:37.758Z,35.900002
2022-12-04T04:43:46.305Z,36.900002
2022-12-04T04:44:54.654Z,36.900002
2022-12-04T04:46:03.051Z,36.900002
2022-12-04T04:47:11.570Z,36
2022-12-04T04:48:19.911Z,36
2022-12-04T04:49:28.255Z,36
2022-12-04T04:50:36.836Z,39.799999
2022-12-04T04:51:45.179Z,39.799999
2022-12-04T04:52:53.506Z,39.799999
2022-12-04T04:54:02.060Z,36.900002
2022-12-04T04:55:10.400Z,36.900002
2022-12-04T04:56:18.788Z,36.900002
2022-12-04T04:57:27.312Z,35.5
2022-12-04T04:58:35.648Z,35.5
2022-12-04T04:59:43.988Z,35.5
2022-12-04T05:00:52.547Z,48.5
2022-12-04T05:02:00.954Z,48.5
2022-12-04T05:03:09.260Z,48.5
2022-12-04T05:04:17.781Z,52
2022-12-04T05:05:26.121Z,52
2022-12-04T05:06:34.468Z,52
2022-12-04T05:07:43.094Z,44.200001
2022-12-04T05:08:51.369Z,44.200001
2022-12-04T05:09:59.804Z,44.200001
2022-12-04T05:11:08.262Z,60.900002
2022-12-04T05:12:16.626Z,60.900002
2022-12-04T05:13:24.934Z,60.900002
2022-12-04T05:14:33.489Z,69.099998
2022-12-04T05:15:41.885Z,69.099998
2022-12-04T05:16:50.202Z,69.099998
2022-12-04T05:17:58.749Z,56.400002
2022-12-04T05:19:07.095Z,56.400002
2022-12-04T05:20:15.442Z,56.400002
2022-12-04T05:21:24.005Z,70.400002
2022-12-04T05:22:32.342Z,70.400002
2022-12-04T05:23:40.697Z,70.400002
2022-12-04T05:24:49.238Z,74.099998
2022-12-04T05:25:57.579Z,74.099998
2022-12-04T05:27:05.927Z,74.099998
2022-12-04T05:28:14.527Z,68.800003
2022-12-04T05:29:22.827Z,68.800003
2022-12-04T05:30:31.174Z,68.800003
2022-12-04T05:31:39.829Z,56.200001
2022-12-04T05:32:48.062Z,56.200001
2022-12-04T05:33:56.405Z,56.200001
2022-12-04T05:35:09.348Z,48.900002
2022-12-04T05:36:13.314Z,48.900002
2022-12-04T05:37:21.658Z,48.900002
2022-12-04T05:38:30.210Z,63.200001
2022-12-04T05:39:38.544Z,63.200001
2022-12-04T05:40:46.892Z,63.200001
2022-12-04T05:41:55.440Z,78.199997
2022-12-04T05:43:03.777Z,78.199997
2022-12-04T05:44:12.148Z,78.199997
2022-12-04T05:45:20.670Z,62.099998
2022-12-04T05:46:29.079Z,62.099998
2022-12-04T05:47:37.371Z,62.099998
2022-12-04T05:48:45.918Z,50.299999
2022-12-04T05:49:54.603Z,50.299999
2022-12-04T05:51:02.636Z,50.299999
2022-12-04T05:52:11.192Z,56.200001
2022-12-04T05:53:19.529Z,56.200001
2022-12-04T05:54:27.889Z,56.200001
2022-12-04T05:55:36.488Z,71.5
2022-12-04T05:56:44.852Z,71.5
2022-12-04T05:57:53.194Z,71.5
2022-12-04T05:59:01.760Z,68.800003
2022-12-04T06:00:10.135Z,68.800003
2022-12-04T06:01:18.489Z,68.800003
2022-12-04T06:02:27.093Z,61.599998
2022-12-04T06:03:35.465Z,61.599998
2022-12-04T06:04:43.724Z,61.599998
2022-12-04T06:05:52.291Z,74.599998
2022-12-04T06:07:00.648Z,74.599998
2022-12-04T06:08:09.101Z,74.599998
2022-12-04T06:09:17.569Z,73.099998
2022-12-04T06:10:25.915Z,73.099998
2022-12-04T06:11:34.265Z,73.099998
2022-12-04T06:12:42.820Z,58
2022-12-04T06:13:51.167Z,58
2022-12-04T06:15:00.338Z,58
2022-12-04T06:16:08.936Z,77.400002
2022-12-04T06:17:17.236Z,77.400002
2022-12-04T06:18:25.570Z,77.400002
2022-12-04T06:19:34.118Z,67.400002
2022-12-04T06:20:42.545Z,67.400002
2022-12-04T06:21:50.805Z,67.400002
2022-12-04T06:22:59.374Z,116.69999
2022-12-04T06:24:07.719Z,116.69999
2022-12-04T06:25:16.089Z,116.69999
2022-12-04T06:26:24.663Z,79.900002
2022-12-04T06:27:33.012Z,79.900002
2022-12-04T06:28:41.372Z,79.900002
2022-12-04T06:29:49.959Z,81.199997
2022-12-04T06:30:58.315Z,81.199997
2022-12-04T06:32:06.737Z,81.199997
2022-12-04T06:33:15.215Z,96.199997
2022-12-04T06:34:23.550Z,96.199997
2022-12-04T06:35:31.895Z,96.199997
2022-12-04T06:36:40.482Z,104.5
2022-12-04T06:37:48.814Z,104.5
2022-12-04T06:38:57.164Z,104.5
2022-12-04T06:40:05.739Z,93
2022-12-04T06:41:14.090Z,93
2022-12-04T06:42:22.463Z,93
2022-12-04T06:43:31.021Z,97.800003
2022-12-04T06:44:39.367Z,97.800003
2022-12-04T06:45:47.809Z,97.800003
2022-12-04T06:46:56.273Z,115.19999
2022-12-04T06:48:04.641Z,115.19999
2022-12-04T06:49:12.960Z,115.19999
2022-12-04T06:50:21.509Z,113
2022-12-04T06:51:29.857Z,113
2022-12-04T06:52:38.192Z,113
2022-12-04T06:53:46.811Z,136.39999
2022-12-04T06:54:55.157Z,136.39999
2022-12-04T06:56:03.500Z,136.39999
2022-12-04T06:57:12.181Z,108.4
2022-12-04T06:58:20.561Z,108.4
2022-12-04T06:59:28.980Z,108.4
2022-12-04T07:00:37.564Z,147
2022-12-04T07:01:45.867Z,147
2022-12-04T07:02:54.274Z,147
2022-12-04T07:04:02.805Z,126.4
2022-12-04T07:05:11.130Z,126.4
2022-12-04T07:06:19.484Z,126.4
2022-12-04T07:07:28.075Z,161.1
2022-12-04T07:08:36.370Z,161.1
2022-12-04T07:09:44.717Z,161.1
2022-12-04T07:10:58.958Z,106.4
2022-12-04T07:12:01.627Z,106.4
2022-12-04T07:13:09.989Z,106.4
2022-12-04T07:14:18.639Z,118.19999
2022-12-04T07:15:26.968Z,118.19999
2022-12-04T07:16:40.207Z,118.19999
2022-12-04T07:17:43.873Z,105.59999
2022-12-04T07:18:52.235Z,105.59999
2022-12-04T07:20:00.600Z,105.59999
2022-12-04T07:21:09.163Z,103.19999
2022-12-04T07:22:17.516Z,103.19999
2022-12-04T07:23:25.861Z,103.19999
2022-12-04T07:24:34.438Z,94.300003
2022-12-04T07:25:42.786Z,94.300003
2022-12-04T07:26:51.114Z,94.300003
2022-12-04T07:27:59.670Z,79.099998
2022-12-04T07:29:08.018Z,79.099998
2022-12-04T07:30:16.458Z,79.099998
2022-12-04T07:31:25.011Z,93.400002
2022-12-04T07:32:33.336Z,93.400002
2022-12-04T07:33:41.681Z,93.400002
2022-12-04T07:34:50.255Z,77.5
2022-12-04T07:35:58.673Z,77.5
2022-12-04T07:37:07.014Z,77.5
2022-12-04T07:38:15.551Z,62.5
2022-12-04T07:39:23.891Z,62.5
2022-12-04T07:40:32.250Z,62.5
2022-12-04T07:41:40.912Z,69.900002
2022-12-04T07:42:49.330Z,69.900002
2022-12-04T07:43:57.680Z,69.900002
2022-12-04T07:45:06.315Z,64.900002
2022-12-04T07:46:14.754Z,64.900002
2022-12-04T07:47:23.047Z,64.900002
2022-12-04T07:48:33.413Z,56
2022-12-04T07:49:39.957Z,56
2022-12-04T07:50:48.310Z,56
2022-12-04T07:51:56.897Z,50.299999
2022-12-04T07:53:05.222Z,50.299999
2022-12-04T07:54:13.574Z,50.299999
2022-12-04T07:55:23.329Z,53.599998
2022-12-04T07:56:30.483Z,53.599998
2022-12-04T07:57:38.822Z,53.599998
2022-12-04T07:58:47.364Z,57.700001
2022-12-04T07:59:55.973Z,57.700001
2022-12-04T08:01:04.116Z,57.700001
2022-12-04T08:02:12.636Z,46.900002
2022-12-04T08:03:21.032Z,46.900002
2022-12-04T08:04:29.441Z,46.900002
2022-12-04T08:05:37.941Z,38.200001
2022-12-04T08:06:46.287Z,38.200001
2022-12-04T08:07:54.697Z,38.200001
2022-12-04T08:09:07.898Z,38.299999
2022-12-04T08:10:11.525Z,38.299999
2022-12-04T08:11:19.873Z,38.299999
2022-12-04T08:12:28.438Z,44.599998
2022-12-04T08:13:36.805Z,44.599998
2022-12-04T08:14:45.153Z,44.599998
2022-12-04T08:15:53.726Z,43.799999
2022-12-04T08:17:02.148Z,43.799999
2022-12-04T08:18:10.411Z,43.799999
2022-12-04T08:19:18.965Z,32.299999
2022-12-04T08:20:27.388Z,32.299999
2022-12-04T08:21:35.736Z,32.299999
2022-12-04T08:22:44.283Z,38.400002
2022-12-04T08:23:52.652Z,38.400002
2022-12-04T08:25:00.973Z,38.400002
2022-12-04T08:26:09.540Z,37.5
2022-12-04T08:27:17.913Z,37.5
2022-12-04T08:28:26.238Z,37.5
2022-12-04T08:29:34.789Z,31.700001
2022-12-04T08:30:43.143Z,31.700001
2022-12-04T08:31:51.490Z,31.700001
2022-12-04T08:33:00.050Z,36.400002
2022-12-04T08:34:08.407Z,36.400002
2022-12-04T08:35:16.777Z,36.400002
2022-12-04T08:36:25.341Z,31.6
2022-12-04T08:37:33.689Z,31.6
2022-12-04T08:38:42.039Z,31.6
2022-12-04T08:39:50.598Z,41.299999
2022-12-04T08:40:58.916Z,41.299999
2022-12-04T08:42:07.268Z,41.299999
2022-12-04T08:43:15.818Z,58.700001
2022-12-04T08:44:24.170Z,58.700001
2022-12-04T08:45:32.582Z,58.700001
2022-12-04T08:46:41.252Z,31
2022-12-04T08:47:52.535Z,31
2022-12-04T08:48:57.781Z,31
2022-12-04T08:50:06.322Z,36.299999
2022-12-04T08:51:14.664Z,36.299999
2022-12-04T08:52:23.007Z,36.299999
2022-12-04T08:53:31.553Z,30.299999
2022-12-04T08:54:39.903Z,30.299999
2022-12-04T08:55:48.285Z,30.299999
2022-12-04T08:56:56.813Z,29.1
2022-12-04T08:58:05.145Z,29.1
2022-12-04T08:59:13.499Z,29.1
2022-12-04T09:00:22.054Z,32.599998
2022-12-04T09:01:30.528Z,32.599998
2022-12-04T09:02:38.764Z,32.599998
2022-12-04T09:03:47.319Z,31.700001
2022-12-04T09:04:55.709Z,31.700001
2022-12-04T09:06:04.009Z,31.700001
2022-12-04T09:07:12.575Z,46.400002
2022-12-04T09:08:20.968Z,46.400002
2022-12-04T09:09:29.256Z,46.400002
2022-12-04T09:10:37.812Z,50.400002
2022-12-04T09:11:46.173Z,50.400002
2022-12-04T09:12:54.490Z,50.400002
2022-12-04T09:14:03.110Z,43.700001
2022-12-04T09:15:11.471Z,43.700001
2022-12-04T09:16:20.679Z,43.700001
2022-12-04T09:17:29.173Z,51.900002
2022-12-04T09:18:37.665Z,51.900002
2022-12-04T09:19:45.927Z,51.900002
2022-12-04T09:20:54.606Z,51.200001
2022-12-04T09:22:04.732Z,51.200001
2022-12-04T09:23:16.014Z,51.200001
2022-12-04T09:24:25.474Z,57.900002
2022-12-04T09:25:35.655Z,57.900002
2022-12-04T09:26:44.892Z,57.900002
2022-12-04T09:27:55.852Z,51.700001
2022-12-04T09:29:04.191Z,51.700001
2022-12-04T09:32:18.201Z,57.799999
2022-12-04T09:33:31.495Z,57.799999
2022-12-04T09:34:42.684Z,57.799999
2022-12-04T09:35:55.928Z,73.5
2022-12-04T09:37:03.768Z,73.5
2022-12-04T09:38:13.016Z,73.5
2022-12-04T09:39:21.665Z,78.199997
2022-12-04T09:40:37.078Z,78.199997
2022-12-04T09:41:38.731Z,78.199997
2022-12-04T09:42:47.830Z,107
2022-12-04T09:43:58.224Z,107
2022-12-04T09:45:06.965Z,107
2022-12-04T09:46:15.568Z,102.3
2022-12-04T09:47:23.924Z,102.3
2022-12-04T09:48:32.643Z,102.3
2022-12-04T09:49:41.920Z,68.5
2022-12-04T09:50:50.574Z,68.5
2022-12-04T09:51:59.144Z,68.5
2022-12-04T09:53:08.669Z,48.900002
2022-12-04T09:54:17.126Z,48.900002
2022-12-04T09:55:25.623Z,48.900002
2022-12-04T09:56:34.902Z,57.599998
2022-12-04T09:57:43.918Z,57.599998
2022-12-04T09:58:52.377Z,57.599998
2022-12-04T10:00:01.177Z,53.200001
2022-12-04T10:01:10.124Z,53.200001
2022-12-04T10:02:18.524Z,53.200001
2022-12-04T10:03:27.167Z,58.200001
2022-12-04T10:04:35.415Z,58.200001
2022-12-04T10:05:43.838Z,58.200001
2022-12-04T10:06:52.587Z,77.5
2022-12-04T10:08:01.003Z,77.5
2022-12-04T10:09:09.286Z,77.5
2022-12-04T10:10:17.829Z,97.5
2022-12-04T10:11:30.816Z,97.5
2022-12-04T10:12:34.627Z,97.5
2022-12-04T10:13:43.172Z,111.3
2022-12-04T10:14:51.532Z,111.3
2022-12-04T10:15:59.954Z,111.3
2022-12-04T10:17:08.434Z,103.5
2022-12-04T10:18:16.780Z,103.5
2022-12-04T10:19:25.128Z,103.5
2022-12-04T10:20:33.664Z,50.099998
2022-12-04T10:21:42.013Z,50.099998
2022-12-04T10:22:50.355Z,50.099998
2022-12-04T10:23:58.896Z,84.400002
2022-12-04T10:25:07.240Z,84.400002
2022-12-04T10:26:15.590Z,84.400002
2022-12-04T10:27:24.141Z,97.800003
2022-12-04T10:28:32.471Z,97.800003
2022-12-04T10:29:40.990Z,97.800003
2022-12-04T10:30:49.668Z,114.9
2022-12-04T10:31:57.912Z,114.9
2022-12-04T10:33:06.207Z,114.9
2022-12-04T10:34:14.759Z,82.199997
2022-12-04T10:35:23.100Z,82.199997
2022-12-04T10:36:31.438Z,82.199997
2022-12-04T10:37:39.983Z,97.5
2022-12-04T10:38:48.320Z,97.5
2022-12-04T10:39:56.929Z,97.5
2022-12-04T10:41:08.812Z,162.19999
2022-12-04T10:42:13.564Z,162.19999
2022-12-04T10:43:21.900Z,162.19999
2022-12-04T10:44:30.449Z,72.300003
2022-12-04T10:45:38.802Z,72.300003
2022-12-04T10:46:47.263Z,72.300003
2022-12-04T10:47:55.733Z,81.199997
2022-12-04T10:49:04.034Z,81.199997
2022-12-04T10:50:12.377Z,81.199997
2022-12-04T10:51:20.947Z,57.099998
2022-12-04T10:52:29.291Z,57.099998
2022-12-04T10:53:37.641Z,57.099998
2022-12-04T10:54:46.191Z,37.799999
2022-12-04T10:55:54.535Z,37.799999
2022-12-04T10:57:02.890Z,37.799999
2022-12-04T10:58:11.430Z,33.400002
2022-12-04T10:59:19.779Z,33.400002
2022-12-04T11:00:28.117Z,33.400002
2022-12-04T11:01:36.729Z,32.200001
2022-12-04T11:02:45.266Z,32.200001
2022-12-04T11:03:53.386Z,32.200001
2022-12-04T11:05:01.895Z,32.5
2022-12-04T11:06:10.245Z,32.5
2022-12-04T11:07:18.594Z,32.5
2022-12-04T11:08:27.307Z,33
2022-12-04T11:09:35.479Z,33
2022-12-04T11:10:43.842Z,33
2022-12-04T11:11:52.370Z,40.200001
2022-12-04T11:13:00.720Z,40.200001
2022-12-04T11:14:09.088Z,40.200001
2022-12-04T11:15:17.625Z,46
2022-12-04T11:16:26.090Z,46
2022-12-04T11:17:34.314Z,46
2022-12-04T11:18:42.863Z,34.700001
2022-12-04T11:19:51.238Z,34.700001
2022-12-04T11:20:59.545Z,34.700001
2022-12-04T11:22:08.073Z,32.900002
2022-12-04T11:23:16.436Z,32.900002
2022-12-04T11:24:24.777Z,32.900002
2022-12-04T11:25:33.307Z,37
2022-12-04T11:26:41.655Z,37
2022-12-04T11:27:49.978Z,37
2022-12-04T11:28:58.514Z,31.799999
2022-12-04T11:30:06.866Z,31.799999
2022-12-04T11:31:15.276Z,31.799999
2022-12-04T11:32:23.763Z,38.799999
2022-12-04T11:33:32.107Z,38.799999
2022-12-04T11:34:40.462Z,38.799999
2022-12-04T11:35:49.040Z,31.5
2022-12-04T11:36:57.375Z,31.5
2022-12-04T11:38:05.711Z,31.5
2022-12-04T11:39:14.268Z,30
2022-12-04T11:40:22.616Z,30
2022-12-04T11:41:30.976Z,30
2022-12-04T11:42:39.515Z,33.700001
2022-12-04T11:43:47.864Z,33.700001
2022-12-04T11:44:56.194Z,33.700001
2022-12-04T11:46:04.766Z,31.9
2022-12-04T11:47:13.159Z,31.9
2022-12-04T11:48:21.446Z,31.9
2022-12-04T11:49:30.017Z,33.099998
2022-12-04T11:50:38.365Z,33.099998
2022-12-04T11:51:46.717Z,33.099998
2022-12-04T11:52:55.253Z,36.900002
2022-12-04T11:54:03.587Z,36.900002
2022-12-04T11:55:11.931Z,36.900002
2022-12-04T11:56:20.508Z,35.799999
2022-12-04T11:57:28.864Z,35.799999
2022-12-04T11:58:37.199Z,35.799999
2022-12-04T11:59:45.750Z,40.400002
2022-12-04T12:00:54.097Z,40.400002
2022-12-04T12:02:02.546Z,40.400002
2022-12-04T12:03:11.229Z,33.200001
2022-12-04T12:04:19.367Z,33.200001
2022-12-04T12:05:27.715Z,33.200001
2022-12-04T12:06:36.274Z,34.900002
2022-12-04T12:07:44.723Z,34.900002
2022-12-04T12:08:52.993Z,34.900002
2022-12-04T12:10:01.537Z,47.200001
2022-12-04T12:11:09.905Z,47.200001
2022-12-04T12:12:18.230Z,47.200001
2022-12-04T12:13:26.792Z,38.799999
2022-12-04T12:14:35.135Z,38.799999
2022-12-04T12:15:43.496Z,38.799999
2022-12-04T12:18:00.402Z,39.299999
2022-12-04T12:19:08.756Z,39.299999
2022-12-04T12:20:17.315Z,38.700001
2022-12-04T12:21:25.679Z,38.700001
2022-12-04T12:22:34.036Z,38.700001
2022-12-04T12:23:42.602Z,33.299999
2022-12-04T12:24:51.507Z,33.299999
2022-12-04T12:25:59.283Z,33.299999
2022-12-04T12:27:07.840Z,38.099998
2022-12-04T12:28:16.181Z,38.099998
2022-12-04T12:29:24.531Z,38.099998
2022-12-04T12:30:33.078Z,35.599998
2022-12-04T12:31:41.538Z,35.599998
2022-12-04T12:32:49.799Z,35.599998
2022-12-04T12:33:58.344Z,41
2022-12-04T12:35:06.702Z,41
2022-12-04T12:36:15.042Z,41
2022-12-04T12:37:23.614Z,38.900002
2022-12-04T12:38:31.946Z,38.900002
2022-12-04T12:39:40.317Z,38.900002
2022-12-04T12:40:48.850Z,42.400002
2022-12-04T12:41:57.182Z,42.400002
2022-12-04T12:43:05.598Z,42.400002
2022-12-04T12:44:14.109Z,43.599998
2022-12-04T12:45:22.444Z,43.599998
2022-12-04T12:46:30.968Z,43.599998
2022-12-04T12:47:39.378Z,65.900002
2022-12-04T12:48:47.725Z,65.900002
2022-12-04T12:49:56.213Z,65.900002
2022-12-04T12:51:28.305Z,62.599998
2022-12-04T12:52:12.994Z,62.599998
2022-12-04T12:53:21.353Z,62.599998
2022-12-04T12:54:29.910Z,57.900002
2022-12-04T12:55:38.278Z,57.900002
2022-12-04T12:56:49.693Z,57.900002
2022-12-04T12:57:55.180Z,48.599998
2022-12-04T12:59:03.524Z,48.599998
2022-12-04T13:00:11.879Z,48.599998
2022-12-04T13:01:20.494Z,72.300003
2022-12-04T13:02:28.865Z,72.300003
2022-12-04T13:03:37.119Z,72.300003
2022-12-04T13:04:45.681Z,83.599998
2022-12-04T13:05:54.076Z,83.599998
2022-12-04T13:07:02.426Z,83.599998
2022-12-04T13:08:11.048Z,61.299999
2022-12-04T13:09:19.335Z,61.299999
2022-12-04T13:10:27.801Z,61.299999
2022-12-04T13:11:36.397Z,77.900002
2022-12-04T13:12:44.694Z,77.900002
2022-12-04T13:13:53.237Z,77.900002
2022-12-04T13:15:01.570Z,53.5
2022-12-04T13:16:10.891Z,53.5
2022-12-04T13:17:19.032Z,53.5
2022-12-04T13:18:27.587Z,72.199997
2022-12-04T13:19:35.951Z,72.199997
2022-12-04T13:20:44.345Z,72.199997
2022-12-04T13:21:52.921Z,75.199997
2022-12-04T13:23:01.547Z,75.199997
2022-12-04T13:24:10.640Z,75.199997
2022-12-04T13:25:19.262Z,70.5
2022-12-04T13:26:27.641Z,70.5
2022-12-04T13:27:36.939Z,70.5
2022-12-04T13:28:46.066Z,99
2022-12-04T13:29:54.721Z,99
2022-12-04T13:31:02.853Z,99
2022-12-04T13:32:11.517Z,95.5
2022-12-04T13:33:19.839Z,95.5
2022-12-04T13:34:28.246Z,95.5
2022-12-04T13:35:37.476Z,119.09999
2022-12-04T13:38:34.006Z,119.09999
2022-12-04T13:39:43.001Z,158.89999
2022-12-04T13:40:53.516Z,158.89999
2022-12-04T13:42:22.429Z,158.89999
2022-12-04T13:44:34.189Z,130.69999
2022-12-04T13:45:52.445Z,130.69999
2022-12-04T13:47:07.241Z,130.69999